Time;durP1;ratioP1;P1;durP2;ratioP2;P2;SDS_P1;SDS_P2;PMS_P1;PMS_P2;Temp;Humidity;BMP_temperature;BMP_pressure;BME280_temperature;BME280_humidity;BME280_pressure;Samples;Min_cycle;Max_cycle;Signal;HPM_P1;HPM_P2
2021/08/27 00:02:25;;;;;;;4.07;3.40;;;;;;;22.61;50.38;99071.25;5034834;28;20472;-77
2021/08/27 00:04:52;;;;;;;4.68;4.22;;;;;;;22.51;50.55;99073.34;5033832;28;20042;-79
2021/08/27 00:07:19;;;;;;;7.28;4.22;;;;;;;22.45;49.77;99078.38;5033884;28;20053;-76
2021/08/27 00:09:46;;;;;;;4.45;4.00;;;;;;;22.38;50.77;99071.31;5034136;28;20046;-79
2021/08/27 00:12:13;;;;;;;6.85;4.10;;;;;;;22.51;50.75;99073.34;5034681;28;20042;-79
2021/08/27 00:14:40;;;;;;;6.25;3.97;;;;;;;22.49;49.85;99069.03;5034736;28;20496;-77
2021/08/27 00:17:09;;;;;;;4.68;3.92;;;;;;;22.58;50.98;99068.94;5034925;28;20072;-77
2021/08/27 00:19:38;;;;;;;6.72;5.05;;;;;;;22.42;51.26;99064.63;5035004;28;20044;-77
2021/08/27 00:22:05;;;;;;;6.40;4.70;;;;;;;22.46;51.70;99068.56;5034444;28;20041;-78
2021/08/27 00:24:31;;;;;;;6.88;4.63;;;;;;;22.41;50.77;99063.78;5034440;28;20456;-77
2021/08/27 00:26:58;;;;;;;6.32;4.80;;;;;;;22.54;51.13;99070.34;5034360;28;20072;-77
2021/08/27 00:29:46;;;;;;;6.53;4.53;;;;;;;22.52;50.92;99067.84;5033014;28;20046;-79
2021/08/27 00:32:18;;;;;;;5.80;4.60;;;;;;;22.49;51.67;99074.34;5036497;28;20045;-79
2021/08/27 00:34:45;;;;;;;5.30;4.32;;;;;;;22.52;51.65;99067.00;5033257;28;20407;-79
2021/08/27 00:37:12;;;;;;;6.68;4.25;;;;;;;22.53;51.55;99073.97;5032995;28;20061;-79
2021/08/27 00:39:38;;;;;;;5.75;4.93;;;;;;;22.52;51.58;99067.84;5034656;28;20041;-79
2021/08/27 00:42:05;;;;;;;6.47;4.57;;;;;;;22.43;50.50;99066.28;5034985;28;20042;-78
2021/08/27 00:44:33;;;;;;;4.43;3.92;;;;;;;22.26;49.62;99068.25;5034357;28;20087;-78
2021/08/27 00:46:59;;;;;;;7.07;4.20;;;;;;;22.05;49.52;99070.72;5034193;28;20104;-78
2021/08/27 00:49:26;;;;;;;4.35;3.95;;;;;;;21.86;49.75;99070.22;5033814;28;20041;-79
2021/08/27 00:51:53;;;;;;;4.22;3.63;;;;;;;21.68;50.29;99072.38;5034274;28;20083;-79
2021/08/27 00:54:20;;;;;;;4.70;3.67;;;;;;;21.58;50.68;99063.81;5033639;28;20045;-78
2021/08/27 00:56:50;;;;;;;4.85;4.03;;;;;;;21.54;51.19;99073.94;5033848;28;20053;-79
2021/08/27 00:59:19;;;;;;;5.40;4.18;;;;;;;21.52;51.18;99077.75;5034073;28;20087;-79
2021/08/27 01:01:46;;;;;;;4.32;3.92;;;;;;;21.57;51.09;99078.03;5034441;28;20048;-79
2021/08/27 01:04:13;;;;;;;3.58;3.15;;;;;;;21.66;51.08;99087.63;5034413;28;20132;-79
2021/08/27 01:06:47;;;;;;;4.15;3.40;;;;;;;21.65;50.71;99084.13;5033585;28;20083;-79
2021/08/27 01:09:39;;;;;;;3.42;3.13;;;;;;;21.45;50.78;99085.59;5034089;28;20065;-79
2021/08/27 01:13:04;;;;;;;4.38;3.60;;;;;;;21.36;51.06;99090.13;5033493;28;20083;-79
2021/08/27 01:15:57;;;;;;;4.20;3.70;;;;;;;21.35;51.09;99098.22;4991500;28;20049;-78
2021/08/27 01:18:30;;;;;;;8.00;4.32;;;;;;;21.42;50.93;99099.22;5033868;28;20045;-79
2021/08/27 01:21:02;;;;;;;7.65;4.28;;;;;;;21.50;50.30;99100.97;5033694;28;20195;-79
2021/08/27 01:23:35;;;;;;;5.88;3.28;;;;;;;21.42;50.92;99100.03;5033627;28;20140;-78
2021/08/27 01:26:04;;;;;;;4.88;3.72;;;;;;;21.52;50.39;99085.69;5033291;28;20045;-78
2021/08/27 01:28:36;;;;;;;3.53;3.22;;;;;;;21.63;50.49;99099.41;5033304;28;20150;-79
2021/08/27 01:31:27;;;;;;;5.32;3.55;;;;;;;21.63;51.60;99099.41;5033771;28;20116;-80
2021/08/27 01:34:34;;;;;;;6.80;3.65;;;;;;;21.60;51.59;99101.56;5026676;28;20554;-80
2021/08/27 01:37:07;;;;;;;4.45;3.28;;;;;;;21.50;51.35;99106.28;5033470;28;20050;-78
2021/08/27 01:39:38;;;;;;;6.33;4.00;;;;;;;21.45;52.20;99107.63;5022616;28;20042;-79
2021/08/27 01:42:08;;;;;;;21.83;5.65;;;;;;;21.67;51.76;99106.00;5020347;28;20048;-78
2021/08/27 01:44:35;;;;;;;3.70;3.28;;;;;;;21.61;51.29;99103.22;5028410;28;20092;-77
2021/08/27 01:47:05;;;;;;;9.18;3.15;;;;;;;21.61;51.11;99103.22;5032846;28;20553;-77
2021/08/27 01:49:32;;;;;;;4.28;3.25;;;;;;;21.78;50.44;99102.09;5032184;28;20484;-77
2021/08/27 01:52:03;;;;;;;3.47;3.17;;;;;;;21.93;50.32;99105.66;5048035;28;20488;-78
2021/08/27 01:54:30;;;;;;;4.97;4.30;;;;;;;22.05;50.95;99107.88;5032114;28;20057;-78
2021/08/27 01:56:58;;;;;;;5.32;3.35;;;;;;;21.71;51.02;99107.28;5032574;28;20499;-77
2021/08/27 01:59:25;;;;;;;4.40;3.05;;;;;;;21.74;49.47;99107.97;5044614;22;20095;31
2021/08/27 02:01:53;;;;;;;3.03;2.70;;;;;;;21.70;49.69;99118.09;5008647;28;20043;-83
2021/08/27 02:04:22;;;;;;;5.43;3.83;;;;;;;21.71;49.92;99119.75;4992518;28;20375;-83
2021/08/27 02:06:49;;;;;;;3.85;3.40;;;;;;;21.44;50.43;99134.31;4992009;28;20046;-83
2021/08/27 02:09:18;;;;;;;7.50;4.43;;;;;;;21.31;51.25;99148.13;4992610;28;20050;-84
2021/08/27 02:11:46;;;;;;;4.40;4.00;;;;;;;20.92;52.64;99150.69;4992553;28;20398;-83
2021/08/27 02:14:15;;;;;;;12.25;5.28;;;;;;;20.20;56.90;99147.13;4993107;28;20109;-83
2021/08/27 02:16:42;;;;;;;6.85;5.72;;;;;;;20.08;57.92;99150.09;4992576;28;20039;-83
2021/08/27 02:19:10;;;;;;;8.38;6.28;;;;;;;19.95;58.37;99155.00;4992830;28;20042;-82
2021/08/27 02:21:45;;;;;;;8.25;6.22;;;;;;;19.98;58.51;99153.88;4992326;28;20432;-84
2021/08/27 02:24:19;;;;;;;7.32;6.35;;;;;;;19.97;58.43;99152.19;4993295;28;20046;-83
2021/08/27 02:26:46;;;;;;;6.75;6.03;;;;;;;19.95;58.43;99160.31;4973561;28;20055;-83
2021/08/27 02:29:17;;;;;;;8.93;6.82;;;;;;;19.93;58.56;99161.47;4973717;28;20035;-83
2021/08/27 02:31:51;;;;;;;8.23;5.25;;;;;;;20.00;58.01;99167.75;4973606;28;20118;-84
2021/08/27 02:34:20;;;;;;;6.60;5.47;;;;;;;19.99;58.07;99180.16;4973960;28;20042;-83
2021/08/27 02:36:49;;;;;;;8.27;5.22;;;;;;;19.80;58.33;99173.31;4973622;28;20098;-83
2021/08/27 02:39:19;;;;;;;7.65;5.20;;;;;;;19.98;58.09;99175.03;4973385;28;20057;-82
2021/08/27 02:41:46;;;;;;;9.43;5.90;;;;;;;19.78;58.35;99183.25;4974091;28;20043;-83
2021/08/27 02:44:13;;;;;;;12.85;6.45;;;;;;;19.71;58.89;99184.91;4973182;28;20039;-82
2021/08/27 02:46:40;;;;;;;12.25;7.00;;;;;;;19.71;60.29;99190.19;4973092;28;20561;-81
2021/08/27 02:49:07;;;;;;;11.80;7.60;;;;;;;19.80;62.57;99194.47;4971989;28;20482;-82
2021/08/27 02:51:44;;;;;;;13.45;6.97;;;;;;;19.76;64.75;99201.09;4973498;28;20035;-81
2021/08/27 02:54:17;;;;;;;13.88;7.93;;;;;;;19.79;65.22;99203.41;4972902;28;20098;-81
2021/08/27 02:56:46;;;;;;;13.20;8.10;;;;;;;19.85;67.67;99204.59;4973375;28;20038;-81
2021/08/27 02:59:16;;;;;;;12.43;8.05;;;;;;;19.80;67.95;99218.28;4973015;28;20039;-81
2021/08/27 03:01:51;;;;;;;13.55;8.00;;;;;;;19.69;68.96;99213.28;4972951;28;20055;-81
2021/08/27 03:04:27;;;;;;;9.93;6.75;;;;;;;19.70;69.79;99214.94;4973973;28;20400;-82
2021/08/27 03:07:05;;;;;;;11.43;7.40;;;;;;;19.71;70.81;99216.63;4973094;28;20078;-81
2021/08/27 03:10:24;;;;;;;9.05;8.13;;;;;;;19.60;73.33;99223.03;4953891;28;20043;-82
2021/08/27 03:13:13;;;;;;;8.90;6.80;;;;;;;19.51;73.15;99225.75;4948409;29;20463;-82
2021/08/27 03:16:07;;;;;;;17.33;7.53;;;;;;;19.40;74.81;99223.41;4953548;29;20051;-82
2021/08/27 03:18:44;;;;;;;9.68;7.25;;;;;;;19.61;74.43;99216.75;4970665;28;20050;-83
2021/08/27 03:21:16;;;;;;;11.45;7.78;;;;;;;19.60;75.62;99220.38;4976221;28;20160;-82
2021/08/27 03:23:47;;;;;;;8.93;8.05;;;;;;;19.70;76.12;99214.94;4976832;28;20042;-82
2021/08/27 03:26:21;;;;;;;14.27;7.72;;;;;;;19.85;75.30;99223.09;4976462;28;20078;-82
2021/08/27 03:28:53;;;;;;;13.40;7.95;;;;;;;19.77;75.89;99228.38;4976227;28;20047;-84
2021/08/27 03:31:23;;;;;;;10.38;7.25;;;;;;;19.88;76.27;99234.19;4976773;28;20047;-82
2021/08/27 03:33:54;;;;;;;9.38;7.90;;;;;;;19.81;77.41;99234.97;4976471;28;20050;-83
2021/08/27 03:36:29;;;;;;;12.65;7.65;;;;;;;19.75;78.54;99233.78;4976019;28;20051;-83
2021/08/27 03:38:58;;;;;;;10.98;7.43;;;;;;;19.95;78.68;99233.53;4976091;28;20050;-83
2021/08/27 03:41:28;;;;;;;9.20;7.10;;;;;;;19.73;80.74;99230.50;4976229;28;20046;-82
2021/08/27 03:43:57;;;;;;;11.30;6.80;;;;;;;19.75;82.10;99227.69;4976024;28;20101;-83
2021/08/27 03:46:25;;;;;;;13.48;6.90;;;;;;;19.75;82.92;99236.44;4976578;28;20413;-81
2021/08/27 03:48:53;;;;;;;11.27;8.60;;;;;;;19.65;83.99;99240.19;4975773;28;20043;-81
2021/08/27 03:51:21;;;;;;;8.63;6.18;;;;;;;19.55;86.65;99242.97;4976223;28;20043;-81
2021/08/27 03:54:04;;;;;;;;;;;;;;;19.74;85.30;99237.44;4976088;28;20045;-81
2021/08/27 03:56:34;;;;;;;10.00;5.07;;;;;;;19.32;89.32;99243.50;4975882;28;19965;-82
2021/08/27 03:59:02;;;;;;;8.00;5.53;;;;;;;19.62;87.98;99251.94;4990462;28;20042;-82
2021/08/27 04:01:29;;;;;;;14.45;6.55;;;;;;;19.53;89.24;99252.84;4975486;28;20544;-82
2021/08/27 04:03:56;;;;;;;12.75;5.65;;;;;;;19.55;89.52;99264.09;4975736;28;20516;-81
2021/08/27 04:06:23;;;;;;;10.10;5.38;;;;;;;19.52;90.46;99269.69;4975352;28;20102;-82
2021/08/27 04:08:50;;;;;;;12.10;6.38;;;;;;;19.70;89.03;99267.81;4976012;28;20047;-81
2021/08/27 04:11:18;;;;;;;11.57;5.93;;;;;;;19.47;91.83;99264.88;4975548;28;20069;-82
2021/08/27 04:13:45;;;;;;;13.18;6.63;;;;;;;19.67;90.05;99273.44;4975623;28;20098;-82
2021/08/27 04:16:17;;;;;;;18.70;7.43;;;;;;;19.50;91.68;99269.88;4975153;28;20042;-81
2021/08/27 04:18:46;;;;;;;15.90;6.03;;;;;;;19.59;90.84;99276.84;4975663;28;20054;-81
2021/08/27 04:21:12;;;;;;;13.18;6.20;;;;;;;19.52;92.09;99275.81;4975056;28;20070;-81
2021/08/27 04:23:39;;;;;;;10.75;5.55;;;;;;;19.24;94.58;99279.63;4975508;28;20121;-84
2021/08/27 04:26:06;;;;;;;21.63;6.93;;;;;;;19.49;92.91;99283.22;4975028;28;20043;-85
2021/08/27 04:28:32;;;;;;;18.13;7.55;;;;;;;19.38;94.21;99284.31;4975152;28;20038;-84
2021/08/27 04:30:59;;;;;;;13.45;6.32;;;;;;;19.26;95.55;99286.38;4974455;28;20047;-82
2021/08/27 04:33:26;;;;;;;23.65;7.82;;;;;;;19.40;94.43;99282.34;4974947;28;20086;-82
2021/08/27 04:35:53;;;;;;;18.27;6.60;;;;;;;19.37;94.84;99288.78;4975027;28;20094;-82
2021/08/27 04:38:20;;;;;;;16.33;6.43;;;;;;;19.38;95.19;99290.41;4966200;28;20069;-83
2021/08/27 04:40:47;;;;;;;18.63;7.38;;;;;;;19.38;94.97;99282.50;4965139;28;20525;-83
2021/08/27 04:43:13;;;;;;;15.30;5.63;;;;;;;19.55;93.45;99287.91;4972931;28;20035;-83
2021/08/27 04:45:40;;;;;;;14.80;7.57;;;;;;;19.19;97.58;99290.66;4974297;28;20046;-83
2021/08/27 04:48:07;;;;;;;15.95;6.18;;;;;;;19.66;92.71;99298.22;4974091;28;20043;-83
2021/08/27 04:50:34;;;;;;;22.50;7.13;;;;;;;19.65;92.55;99295.72;4974479;28;20043;-84
2021/08/27 04:53:01;;;;;;;27.17;7.45;;;;;;;19.39;95.70;99301.84;4974205;28;20042;-83
2021/08/27 04:55:27;;;;;;;18.60;6.60;;;;;;;19.38;95.44;99301.00;4974334;28;20101;-81
2021/08/27 04:57:54;;;;;;;20.48;6.28;;;;;;;19.33;96.06;99308.59;4974492;28;20063;-83
2021/08/27 05:00:21;;;;;;;21.08;6.15;;;;;;;19.48;95.07;99311.47;4973788;28;20058;-82
2021/08/27 05:02:48;;;;;;;20.70;6.65;;;;;;;19.40;95.54;99314.06;4974196;28;20138;-83
2021/08/27 05:05:16;;;;;;;15.80;5.60;;;;;;;19.58;94.63;99320.13;4973706;28;20474;-83
2021/08/27 05:07:43;;;;;;;14.93;6.40;;;;;;;19.55;94.10;99317.81;4974272;28;20043;-83
2021/08/27 05:10:10;;;;;;;18.95;7.60;;;;;;;19.63;94.17;99309.94;4973719;28;20042;-82
2021/08/27 05:12:37;;;;;;;19.45;6.28;;;;;;;19.48;94.74;99305.34;4974041;28;20130;-83
2021/08/27 05:15:05;;;;;;;18.77;6.88;;;;;;;19.33;96.46;99313.88;4973524;28;20045;-83
2021/08/27 05:17:32;;;;;;;15.60;6.72;;;;;;;19.26;98.06;99312.00;4974239;28;20149;-84
2021/08/27 05:19:59;;;;;;;17.30;6.18;;;;;;;19.42;96.19;99308.63;4974439;28;20043;-84
2021/08/27 05:22:26;;;;;;;16.05;6.80;;;;;;;19.51;95.62;99311.16;4974243;28;20049;-84
2021/08/27 05:24:56;;;;;;;11.55;5.85;;;;;;;19.64;94.05;99316.03;4967369;28;20387;-83
2021/08/27 05:27:23;;;;;;;21.27;6.53;;;;;;;19.68;94.14;99325.31;4954835;28;20063;-83
2021/08/27 05:29:50;;;;;;;19.90;5.80;;;;;;;19.59;94.20;99319.16;4960015;28;20070;-82
2021/08/27 05:32:17;;;;;;;23.55;7.90;;;;;;;19.73;93.39;99325.69;4973767;28;20050;-81
2021/08/27 05:34:45;;;;;;;15.45;6.93;;;;;;;19.43;96.11;99323.50;4974260;28;20051;-82
2021/08/27 05:37:12;;;;;;;14.30;6.30;;;;;;;19.72;93.92;99334.59;4973983;28;20046;-83
2021/08/27 05:39:39;;;;;;;12.60;5.40;;;;;;;19.51;95.36;99337.59;4974086;28;20049;-82
2021/08/27 05:42:06;;;;;;;13.13;5.15;;;;;;;19.51;95.61;99336.78;4973745;28;20043;-83
2021/08/27 05:44:32;;;;;;;20.75;5.60;;;;;;;19.48;95.69;99329.97;4973591;28;20043;-84
2021/08/27 05:46:59;;;;;;;27.63;6.45;;;;;;;19.55;95.20;99333.66;4988869;28;20057;-83
2021/08/27 05:49:26;;;;;;;19.67;5.22;;;;;;;19.40;96.55;99344.97;4973837;28;20497;-82
2021/08/27 05:51:53;;;;;;;21.55;5.22;;;;;;;19.59;94.75;99339.47;4972325;28;20401;-83
2021/08/27 05:54:20;;;;;;;24.95;6.80;;;;;;;19.66;94.44;99331.78;4973645;28;20043;-82
2021/08/27 05:56:46;;;;;;;26.63;7.03;;;;;;;19.72;93.68;99336.44;4974082;28;20114;-83
2021/08/27 05:59:13;;;;;;;21.75;6.15;;;;;;;19.24;98.49;99341.22;4973689;28;20063;-85
2021/08/27 06:01:40;;;;;;;22.63;4.75;;;;;;;19.46;96.49;99339.06;4973553;28;20061;-87
2021/08/27 06:04:08;;;;;;;15.02;5.15;;;;;;;19.43;96.49;99339.34;4973198;28;20518;-86
2021/08/27 06:06:35;;;;;;;18.88;6.15;;;;;;;19.50;95.81;99345.69;4973839;28;20042;-83
2021/08/27 06:09:43;;;;;;;;;;;;;;;;;;;;;
2021/08/27 06:12:30;;;;;;;19.95;4.72;;;;;;;19.36;96.85;99344.44;4933177;29;20593;-86
2021/08/27 06:14:57;;;;;;;14.27;4.22;;;;;;;19.45;96.48;99348.78;4932536;29;20068;-86
2021/08/27 06:17:23;;;;;;;10.40;3.53;;;;;;;19.57;95.09;99346.72;4933286;29;20094;-86
2021/08/27 06:19:50;;;;;;;20.52;4.13;;;;;;;19.30;97.69;99350.34;4932935;29;20414;-86
2021/08/27 06:22:17;;;;;;;12.65;4.80;;;;;;;19.36;97.21;99361.09;4932565;29;20099;-84
2021/08/27 06:24:44;;;;;;;12.38;5.90;;;;;;;19.27;97.91;99362.03;4932946;29;20048;-84
2021/08/27 06:27:11;;;;;;;26.75;5.97;;;;;;;19.50;96.20;99356.25;4932483;29;20103;-84
2021/08/27 06:29:40;;;;;;;14.30;4.32;;;;;;;19.38;96.29;99359.13;4932703;29;20180;-85
2021/08/27 06:32:08;;;;;;;19.65;5.05;;;;;;;19.48;95.26;99364.31;4932429;29;20044;-85
2021/08/27 06:34:35;;;;;;;21.40;4.50;;;;;;;19.28;97.19;99365.50;4933034;29;20487;-82
2021/08/27 06:37:02;;;;;;;13.90;4.57;;;;;;;19.48;94.74;99369.63;4932481;29;20047;-84
2021/08/27 06:39:29;;;;;;;14.82;5.35;;;;;;;19.17;97.58;99369.22;4932907;29;20208;-83
2021/08/27 06:41:56;;;;;;;13.90;3.40;;;;;;;19.32;96.17;99375.59;4932476;29;20040;-83
2021/08/27 06:44:24;;;;;;;17.42;4.90;;;;;;;19.42;95.18;99370.22;4952830;28;20055;-83
2021/08/27 06:46:51;;;;;;;10.85;4.07;;;;;;;19.32;96.11;99370.31;4963853;28;20082;-85
2021/08/27 06:49:18;;;;;;;10.25;3.60;;;;;;;19.56;93.82;99382.06;4980634;28;20035;-82
2021/08/27 06:51:44;;;;;;;17.08;3.78;;;;;;;19.66;92.91;99377.53;4965412;28;20035;-81
2021/08/27 06:54:11;;;;;;;18.02;3.53;;;;;;;19.94;90.31;99388.78;4971308;28;20050;-81
2021/08/27 06:56:38;;;;;;;11.27;3.25;;;;;;;19.45;93.54;99391.09;4973347;28;20054;-85
2021/08/27 06:59:05;;;;;;;9.13;2.78;;;;;;;19.71;91.02;99396.41;4965013;28;20047;-83
2021/08/27 07:01:32;;;;;;;12.55;4.35;;;;;;;19.72;90.28;99384.84;4969108;28;20055;-84
2021/08/27 07:03:59;;;;;;;15.88;4.22;;;;;;;19.81;88.90;99386.53;4969358;28;20058;-83
2021/08/27 07:06:27;;;;;;;14.63;3.08;;;;;;;19.84;88.10;99396.81;4969481;28;20482;-87
2021/08/27 07:08:54;;;;;;;11.27;2.70;;;;;;;20.09;86.41;99397.78;4966658;28;20065;-85
2021/08/27 07:11:20;;;;;;;10.15;2.45;;;;;;;19.78;87.05;99402.72;4969672;28;20075;-89
2021/08/27 07:13:47;;;;;;;13.13;3.20;;;;;;;19.58;87.96;99401.25;4967280;28;20438;-84
2021/08/27 07:16:17;;;;;;;12.20;2.88;;;;;;;19.84;85.89;99406.56;4969289;28;20039;-86
2021/08/27 07:18:44;;;;;;;13.15;2.70;;;;;;;19.76;85.06;99407.34;4970038;28;20035;-82
2021/08/27 07:21:11;;;;;;;9.23;2.90;;;;;;;19.78;84.92;99408.00;4974338;28;20579;-81
2021/08/27 07:23:38;;;;;;;12.45;2.83;;;;;;;19.89;83.87;99407.75;4983267;28;20072;-83
2021/08/27 07:26:04;;;;;;;13.32;2.35;;;;;;;19.65;85.20;99412.88;4984123;28;20046;-81
2021/08/27 07:28:33;;;;;;;14.38;2.60;;;;;;;19.75;84.28;99416.25;4984092;28;20124;-82
2021/08/27 07:31:00;;;;;;;10.00;2.20;;;;;;;19.96;83.47;99423.00;4974296;28;20109;-84
2021/08/27 07:33:27;;;;;;;19.13;3.70;;;;;;;19.99;82.75;99415.59;4972637;28;20050;-82
2021/08/27 07:35:53;;;;;;;16.20;3.33;;;;;;;19.93;82.78;99424.16;4972983;28;20050;-81
2021/08/27 07:38:20;;;;;;;12.20;2.90;;;;;;;19.97;82.47;99429.94;4973284;28;20122;-82
2021/08/27 07:40:47;;;;;;;10.65;2.55;;;;;;;19.85;82.81;99422.25;4972300;28;20054;-82
2021/08/27 07:43:14;;;;;;;9.18;2.92;;;;;;;19.94;82.33;99419.69;4972560;28;20102;-79
2021/08/27 07:45:41;;;;;;;17.45;3.50;;;;;;;19.99;81.91;99423.50;4982573;28;20054;-81
2021/08/27 07:48:07;;;;;;;10.93;2.15;;;;;;;19.64;83.48;99419.16;4981342;28;20039;-82
2021/08/27 07:50:34;;;;;;;14.95;2.92;;;;;;;19.86;82.34;99417.81;4975994;28;20042;-80
2021/08/27 07:53:01;;;;;;;8.27;2.45;;;;;;;19.76;82.80;99427.66;4973574;28;20117;-80
2021/08/27 07:55:28;;;;;;;11.00;2.95;;;;;;;19.93;81.56;99420.69;4978036;28;20043;-80
2021/08/27 07:57:55;;;;;;;13.30;2.85;;;;;;;19.93;81.51;99425.97;4971952;28;20043;-80
2021/08/27 08:00:21;;;;;;;6.90;2.30;;;;;;;19.71;82.60;99433.44;4981519;28;20055;-79
2021/08/27 08:02:48;;;;;;;12.73;2.65;;;;;;;19.78;82.28;99439.75;4971119;28;20109;-81
2021/08/27 08:05:16;;;;;;;8.23;2.97;;;;;;;19.52;83.43;99430.94;4970138;28;20039;-81
2021/08/27 08:07:43;;;;;;;10.95;3.15;;;;;;;19.87;81.38;99438.81;4988116;28;20051;-80
2021/08/27 08:10:10;;;;;;;16.45;4.13;;;;;;;19.91;80.59;99438.50;4971827;28;20047;-81
2021/08/27 08:12:37;;;;;;;9.02;2.92;;;;;;;20.15;79.09;99436.00;4978712;28;20054;-81
2021/08/27 08:15:04;;;;;;;7.68;2.88;;;;;;;19.81;80.14;99444.72;4966976;28;20066;-80
2021/08/27 08:17:31;;;;;;;6.43;2.67;;;;;;;20.05;79.17;99451.16;4973690;28;20050;-79
2021/08/27 08:19:58;;;;;;;7.55;2.20;;;;;;;19.75;79.41;99465.66;4984613;28;20070;-80
2021/08/27 08:22:25;;;;;;;8.45;1.77;;;;;;;19.80;79.52;99463.38;4979367;28;20042;-80
2021/08/27 08:24:51;;;;;;;7.97;2.05;;;;;;;19.70;79.39;99463.47;4975732;28;20039;-81
2021/08/27 08:27:18;;;;;;;9.65;2.53;;;;;;;19.55;80.23;99467.66;4974555;28;20042;-81
2021/08/27 08:29:45;;;;;;;6.68;1.63;;;;;;;19.10;82.45;99484.41;4971627;28;20046;-81
2021/08/27 08:32:12;;;;;;;5.55;2.08;;;;;;;19.45;80.32;99477.47;4971686;28;20799;-81
2021/08/27 08:34:39;;;;;;;7.00;2.00;;;;;;;19.25;81.20;99477.63;4975417;28;20042;-80
2021/08/27 08:37:07;;;;;;;9.05;2.38;;;;;;;19.28;81.53;99492.31;4972145;28;20074;-81
2021/08/27 08:39:36;;;;;;;7.68;2.25;;;;;;;19.32;81.90;99494.53;4973865;28;20031;-81
2021/08/27 08:42:03;;;;;;;10.30;1.98;;;;;;;18.98;84.24;99502.28;4971845;28;20038;-80
2021/08/27 08:44:32;;;;;;;7.57;1.75;;;;;;;18.96;84.54;99513.94;4970883;28;20051;-80
2021/08/27 08:47:03;;;;;;;5.20;1.92;;;;;;;19.00;84.38;99524.06;4974221;28;20042;-80
2021/08/27 08:49:35;;;;;;;6.18;2.00;;;;;;;18.93;85.48;99528.28;4974940;28;20047;-80
2021/08/27 08:52:03;;;;;;;5.28;2.22;;;;;;;19.06;84.78;99527.94;4983622;28;20043;-80
2021/08/27 08:54:31;;;;;;;9.55;3.22;;;;;;;19.15;84.76;99532.34;4976639;28;20098;-80
2021/08/27 08:56:58;;;;;;;3.35;2.08;;;;;;;18.73;88.54;99538.13;4975967;28;20486;-80
2021/08/27 08:59:26;;;;;;;5.85;2.20;;;;;;;18.69;91.67;99542.03;4976106;28;20050;-81
2021/08/27 09:01:53;;;;;;;5.50;1.67;;;;;;;18.25;92.68;99538.25;4942503;28;1177919;-80
2021/08/27 09:04:24;;;;;;;4.93;1.40;;;;;;;18.34;92.16;99542.69;4980688;28;20046;-81
2021/08/27 09:06:51;;;;;;;5.43;2.10;;;;;;;18.54;90.72;99538.19;4975516;28;20059;-80
2021/08/27 09:09:33;;;;;;;6.30;1.80;;;;;;;18.44;91.15;99542.66;4974461;28;20042;-80
2021/08/27 09:12:18;;;;;;;2.80;1.15;;;;;;;18.10;93.16;99550.22;4974733;28;20137;-80
2021/08/27 09:14:56;;;;;;;3.78;1.63;;;;;;;18.05;91.33;99550.66;4975637;28;20521;-80
2021/08/27 09:17:38;;;;;;;8.80;1.92;;;;;;;18.28;89.18;99552.00;4972291;28;20047;-80
2021/08/27 09:20:08;;;;;;;6.15;2.45;;;;;;;18.35;89.31;99549.63;4973188;28;20043;-80
2021/08/27 09:22:50;;;;;;;5.95;2.20;;;;;;;18.64;86.41;99544.22;4972529;28;20046;-83
2021/08/27 09:25:20;;;;;;;2.70;1.27;;;;;;;18.74;85.04;99545.06;4973818;28;20164;-80
2021/08/27 09:28:12;;;;;;;7.22;1.85;;;;;;;18.61;84.36;99551.63;4956320;28;20471;-80
2021/08/27 09:30:59;;;;;;;3.80;1.52;;;;;;;18.22;87.52;99555.22;4957599;28;20066;-82
2021/08/27 09:33:29;;;;;;;7.50;1.85;;;;;;;18.34;87.18;99553.25;4965652;28;20447;-83
2021/08/27 09:36:14;;;;;;;10.38;2.67;;;;;;;18.68;85.13;99548.28;4962581;28;20047;-81
2021/08/27 09:38:41;;;;;;;5.82;1.73;;;;;;;18.94;84.24;99552.91;4959577;28;20046;-82
2021/08/27 09:41:13;;;;;;;6.38;1.63;;;;;;;18.92;84.64;99563.63;4960146;28;20206;-85
2021/08/27 09:43:51;;;;;;;4.45;2.13;;;;;;;18.28;87.84;99556.47;4961338;28;20051;-83
2021/08/27 09:46:43;;;;;;;3.65;1.42;;;;;;;18.58;85.74;99572.03;4971809;28;20046;-84
2021/08/27 09:49:29;;;;;;;2.47;1.73;;;;;;;18.37;84.73;99562.66;4971415;28;20038;-84
2021/08/27 09:51:58;;;;;;;7.30;1.85;;;;;;;18.89;82.53;99563.91;4972324;28;20047;-84
2021/08/27 09:54:37;;;;;;;4.65;1.60;;;;;;;18.70;83.17;99574.56;4971807;28;20038;-83
2021/08/27 09:57:07;;;;;;;5.03;1.52;;;;;;;18.68;82.38;99579.97;4973090;28;20565;-80
2021/08/27 09:59:47;;;;;;;6.65;2.05;;;;;;;18.73;81.52;99579.53;4971688;28;20039;-85
2021/08/27 10:02:29;;;;;;;10.70;1.83;;;;;;;18.66;81.60;99581.91;4976212;28;20046;-81
2021/08/27 10:05:04;;;;;;;3.42;1.70;;;;;;;18.86;80.72;99576.56;4972264;28;20042;-83
2021/08/27 10:07:35;;;;;;;6.47;1.45;;;;;;;18.67;81.71;99578.28;4972406;28;20047;-84
2021/08/27 10:10:05;;;;;;;4.03;1.60;;;;;;;18.49;82.39;99566.81;4957389;28;20038;-85
2021/08/27 10:12:38;;;;;;;11.88;1.60;;;;;;;18.70;81.50;99572.75;4965961;28;20036;-82
2021/08/27 10:15:09;;;;;;;11.50;2.40;;;;;;;18.59;81.53;99575.53;4967082;28;20051;-85
2021/08/27 10:17:37;;;;;;;3.60;1.48;;;;;;;18.75;80.56;99578.44;4965912;28;20515;-83
2021/08/27 10:20:07;;;;;;;4.65;2.33;;;;;;;18.59;81.55;99583.44;4964958;28;20101;-85
2021/08/27 10:22:41;;;;;;;3.03;1.58;;;;;;;18.57;80.54;99593.31;4965526;28;20035;-81
2021/08/27 10:25:10;;;;;;;6.95;1.80;;;;;;;18.59;80.29;99604.56;4967626;28;20055;-83
2021/08/27 10:27:38;;;;;;;4.65;1.90;;;;;;;18.08;81.63;99600.50;4965655;28;20057;-84
2021/08/27 10:30:06;;;;;;;3.22;1.70;;;;;;;18.36;80.65;99601.41;4966764;28;20098;-82
2021/08/27 10:32:39;;;;;;;2.95;1.70;;;;;;;18.08;80.47;99605.75;4972323;28;20046;-81
2021/08/27 10:35:07;;;;;;;4.70;1.85;;;;;;;17.97;81.01;99613.81;4971378;28;20039;-84
2021/08/27 10:37:50;;;;;;;6.30;1.88;;;;;;;17.75;81.58;99615.75;4968252;28;20051;-82
2021/08/27 10:40:23;;;;;;;2.70;1.60;;;;;;;18.27;78.51;99613.66;4969656;28;20138;-84
2021/08/27 10:42:52;;;;;;;5.20;1.65;;;;;;;18.60;77.94;99608.88;4968263;28;20146;-85
2021/08/27 10:45:53;;;;;;;3.05;1.73;;;;;;;18.45;77.52;99605.84;4972409;28;20035;-86
2021/08/27 10:48:24;;;;;;;5.63;2.20;;;;;;;18.31;77.92;99615.03;4971518;28;20043;-85
2021/08/27 10:50:54;;;;;;;5.28;1.52;;;;;;;17.99;79.87;99604.78;4971136;28;20050;-84
2021/08/27 10:53:34;;;;;;;3.83;1.35;;;;;;;18.14;79.27;99615.75;4969105;28;20094;-86
2021/08/27 10:56:09;;;;;;;2.60;1.70;;;;;;;18.02;79.68;99608.97;4970590;28;20067;-90
2021/08/27 10:58:40;;;;;;;3.42;1.58;;;;;;;17.68;81.67;99611.97;4972373;28;20145;-88
2021/08/27 11:01:25;;;;;;;4.30;1.35;;;;;;;17.91;81.79;99609.94;4967738;28;20413;-87
2021/08/27 11:04:17;;;;;;;3.17;1.50;;;;;;;18.11;80.05;99605.50;4984790;28;20043;-90
2021/08/27 11:06:46;;;;;;;1.67;1.20;;;;;;;18.62;77.85;99600.78;4969738;28;20401;-86
2021/08/27 11:09:18;;;;;;;1.98;1.52;;;;;;;18.57;78.02;99611.78;4967089;28;20114;-87
2021/08/27 11:11:46;;;;;;;2.80;1.50;;;;;;;18.31;79.38;99606.28;4969480;28;20038;-86
2021/08/27 11:14:14;;;;;;;2.30;1.10;;;;;;;18.02;80.53;99612.44;4971146;28;20047;-88
2021/08/27 11:16:42;;;;;;;3.17;1.30;;;;;;;17.62;82.95;99623.06;4974171;28;20070;-90
2021/08/27 11:19:41;;;;;;;3.50;1.48;;;;;;;17.88;82.05;99618.13;4966169;28;20067;-93
2021/08/27 11:22:09;;;;;;;3.42;1.92;;;;;;;18.14;80.54;99609.66;4973821;28;20055;-88
2021/08/27 11:25:07;;;;;;;7.28;1.83;;;;;;;18.74;77.51;99612.88;4970854;28;20535;-86
2021/08/27 11:27:35;;;;;;;1.95;1.52;;;;;;;18.66;78.32;99608.28;4968648;28;20050;-92
2021/08/27 11:30:27;;;;;;;2.50;1.85;;;;;;;18.31;80.01;99615.03;4973663;28;20038;-91
2021/08/27 11:32:55;;;;;;;3.63;1.92;;;;;;;18.19;80.97;99620.59;4972248;28;20050;-86
2021/08/27 11:35:23;;;;;;;3.25;1.70;;;;;;;18.11;81.05;99610.78;4972686;28;20105;-83
2021/08/27 11:38:05;;;;;;;4.68;1.75;;;;;;;18.32;79.88;99623.78;4968539;28;20505;-84
2021/08/27 11:40:32;;;;;;;6.22;1.77;;;;;;;18.35;79.93;99612.94;4968471;28;20070;-84
2021/08/27 11:42:59;;;;;;;4.97;1.83;;;;;;;18.17;80.57;99615.47;4983113;28;20037;-89
2021/08/27 11:45:32;;;;;;;13.88;2.08;;;;;;;18.26;79.86;99622.53;4972483;28;20038;-84
2021/08/27 11:48:06;;;;;;;6.82;2.88;;;;;;;18.50;79.78;99622.09;4969267;28;20047;-87
2021/08/27 11:50:42;;;;;;;7.35;1.80;;;;;;;18.69;77.62;99623.84;4966068;28;20105;-85